Time;durP1;ratioP1;P1;durP2;ratioP2;P2;SDS_P1;SDS_P2;PMS_P1;PMS_P2;Temp;Humidity;BMP_temperature;BMP_pressure;BME280_temperature;BME280_humidity;BME280_pressure;Samples;Min_cycle;Max_cycle;Signal;HPM_P1;HPM_P2
2020/12/03 00:02:05;;;;;;;44.27;20.90;;;;;;;2.82;66.12;96127.53;5072673;28;20421;-67
2020/12/03 00:04:31;;;;;;;42.77;20.63;;;;;;;3.06;65.71;96123.78;5060705;28;20253;-68
2020/12/03 00:06:59;;;;;;;47.20;19.33;;;;;;;2.90;65.68;96119.91;5072376;28;20210;-68
2020/12/03 00:09:25;;;;;;;44.70;21.70;;;;;;;2.95;65.19;96113.53;5067302;28;20217;-67
2020/12/03 00:11:55;;;;;;;51.37;22.10;;;;;;;2.54;66.94;96116.13;5070883;28;20428;-69
2020/12/03 00:14:21;;;;;;;58.37;22.73;;;;;;;2.11;69.16;96120.50;5072274;28;20421;-68
2020/12/03 00:16:48;;;;;;;48.13;21.07;;;;;;;2.66;67.29;96117.66;5071796;28;20494;-69
2020/12/03 00:19:14;;;;;;;48.77;22.37;;;;;;;2.68;66.84;96104.59;5071020;28;20579;-68
2020/12/03 00:21:46;;;;;;;50.83;20.57;;;;;;;2.63;67.42;96101.59;5070913;28;20954;-68
2020/12/03 00:24:18;;;;;;;50.80;21.57;;;;;;;2.86;66.87;96100.44;5071841;28;20421;-69
2020/12/03 00:26:44;;;;;;;49.70;22.10;;;;;;;2.70;67.19;96105.28;5071607;28;20804;-68
2020/12/03 00:29:09;;;;;;;48.10;23.17;;;;;;;2.82;66.42;96104.25;5072250;28;20460;-69
2020/12/03 00:31:35;;;;;;;49.03;22.70;;;;;;;3.03;66.29;96100.75;5070760;28;20182;-68
2020/12/03 00:34:08;;;;;;;58.07;24.17;;;;;;;3.07;66.12;96102.13;5071509;28;20182;-68
2020/12/03 00:36:34;;;;;;;53.23;23.17;;;;;;;2.98;66.60;96097.75;5070442;28;21038;-68
2020/12/03 00:39:01;;;;;;;50.57;22.60;;;;;;;2.89;66.81;96102.78;5070147;28;20453;-68
2020/12/03 00:41:26;;;;;;;56.80;24.03;;;;;;;2.51;68.28;96095.66;5072227;28;20443;-67
2020/12/03 00:43:52;;;;;;;56.57;23.83;;;;;;;2.63;67.95;96086.06;5071968;28;20428;-67
2020/12/03 00:46:18;;;;;;;55.27;23.17;;;;;;;2.42;69.17;96092.09;5070076;28;20649;-67
2020/12/03 00:48:43;;;;;;;58.33;23.50;;;;;;;2.27;69.94;96081.25;5071918;28;20576;-69
2020/12/03 00:51:12;;;;;;;56.13;23.30;;;;;;;2.33;69.48;96072.16;5068291;28;20194;-68
2020/12/03 00:53:39;;;;;;;57.53;22.37;;;;;;;2.72;68.57;96072.34;5071375;28;20275;-71
2020/12/03 00:56:05;;;;;;;53.83;23.30;;;;;;;2.54;68.86;96074.72;5076228;28;20795;-69
2020/12/03 00:58:31;;;;;;;58.23;23.50;;;;;;;2.67;68.53;96074.50;5071870;28;20436;-69
2020/12/03 01:00:56;;;;;;;58.73;23.77;;;;;;;2.50;68.97;96079.34;5055188;28;20193;-70
2020/12/03 01:03:22;;;;;;;57.00;22.00;;;;;;;2.81;67.95;96076.72;5054091;28;20170;-68
2020/12/03 01:05:48;;;;;;;67.90;24.50;;;;;;;2.87;68.35;96077.97;5070208;28;20236;-69
2020/12/03 01:08:13;;;;;;;57.00;24.67;;;;;;;3.01;67.09;96077.59;5070284;28;20202;-68
2020/12/03 01:10:39;;;;;;;55.23;23.70;;;;;;;3.14;67.07;96081.72;5066937;28;20209;-68
2020/12/03 01:13:05;;;;;;;56.73;23.73;;;;;;;3.08;66.70;96080.47;5072937;28;20577;-69
2020/12/03 01:15:31;;;;;;;58.23;24.03;;;;;;;3.21;66.64;96070.69;5071042;28;20174;-68
2020/12/03 01:17:57;;;;;;;51.53;22.80;;;;;;;3.21;67.12;96072.47;5071359;28;20817;-69
2020/12/03 01:20:28;;;;;;;55.40;23.27;;;;;;;3.28;66.20;96073.56;5070561;28;20182;-68
2020/12/03 01:22:54;;;;;;;53.40;22.03;;;;;;;3.21;66.66;96072.47;5070320;28;21112;-68
2020/12/03 01:25:21;;;;;;;57.00;24.40;;;;;;;3.20;66.77;96065.66;5069973;28;20425;-68
2020/12/03 01:27:47;;;;;;;52.20;22.90;;;;;;;2.98;67.56;96066.69;5070675;28;21001;-69
2020/12/03 01:30:14;;;;;;;48.77;22.63;;;;;;;3.15;67.12;96073.78;5064072;28;20417;-68
2020/12/03 01:32:40;;;;;;;51.90;23.73;;;;;;;3.21;66.38;96060.34;5071255;28;20413;-68
2020/12/03 01:35:08;;;;;;;50.50;22.50;;;;;;;3.28;66.38;96062.38;5070003;28;20439;-67
2020/12/03 01:37:34;;;;;;;56.47;24.40;;;;;;;3.13;65.84;96057.59;5061345;28;20436;-67
2020/12/03 01:40:00;;;;;;;55.93;24.20;;;;;;;3.10;67.21;96054.44;5070631;28;20425;-68
2020/12/03 01:42:25;;;;;;;54.20;23.10;;;;;;;3.31;66.65;96052.59;5055710;28;20775;-68
2020/12/03 01:44:53;;;;;;;55.63;23.23;;;;;;;3.26;66.07;96053.94;5065985;28;20671;-68
2020/12/03 01:47:25;;;;;;;51.97;22.77;;;;;;;3.17;66.31;96047.78;5070716;28;20198;-69
2020/12/03 01:49:50;;;;;;;52.10;21.40;;;;;;;3.33;66.27;96036.91;5069649;28;20448;-69
2020/12/03 01:52:16;;;;;;;49.30;22.50;;;;;;;3.38;66.27;96032.94;5069416;28;20857;-69
2020/12/03 01:54:42;;;;;;;44.53;21.63;;;;;;;3.53;65.77;96030.75;5068935;28;20181;-69
2020/12/03 01:57:13;;;;;;;52.93;23.90;;;;;;;3.54;65.23;96027.22;5072042;28;20205;-70
2020/12/03 02:00:03;;;;;;;45.43;21.40;;;;;;;3.26;65.72;96025.44;5074755;28;20179;-69
2020/12/03 02:02:29;;;;;;;50.60;22.27;;;;;;;3.54;65.20;96027.22;5074863;28;20478;-66
2020/12/03 02:05:17;;;;;;;53.40;22.00;;;;;;;3.60;64.62;96027.63;5074550;28;20420;-68
2020/12/03 02:07:44;;;;;;;50.43;20.73;;;;;;;3.51;65.15;96029.25;5074472;28;20202;-69
2020/12/03 02:10:11;;;;;;;48.60;22.03;;;;;;;3.67;65.15;96018.34;5070995;28;20421;-69
2020/12/03 02:12:37;;;;;;;51.10;23.90;;;;;;;3.64;64.61;96008.25;5074210;28;20421;-69
2020/12/03 02:15:06;;;;;;;47.97;22.30;;;;;;;3.63;64.45;96011.81;5074324;28;20432;-67
2020/12/03 02:17:32;;;;;;;45.23;21.63;;;;;;;3.64;64.93;96016.03;5074259;28;20986;-68
2020/12/03 02:20:05;;;;;;;46.10;22.60;;;;;;;3.62;65.61;96007.59;5073227;28;20429;-68
2020/12/03 02:22:30;;;;;;;44.97;21.27;;;;;;;3.60;64.96;95997.34;5074483;28;20452;-68
2020/12/03 02:24:56;;;;;;;45.73;21.87;;;;;;;3.53;64.85;95994.47;5074046;28;20879;-68
2020/12/03 02:27:23;;;;;;;44.17;21.00;;;;;;;3.66;65.07;95993.38;5045715;28;20215;-69
2020/12/03 02:29:50;;;;;;;45.00;22.20;;;;;;;3.75;64.74;95987.38;5069114;28;20190;-68
2020/12/03 02:32:16;;;;;;;51.47;22.90;;;;;;;3.71;64.62;95991.19;5056721;28;20433;-68
2020/12/03 02:34:43;;;;;;;47.97;21.23;;;;;;;3.64;65.18;95977.19;5074536;28;20433;-67
2020/12/03 02:37:09;;;;;;;49.50;24.23;;;;;;;3.62;64.63;95977.28;5075354;28;20441;-68
2020/12/03 02:39:35;;;;;;;53.17;24.33;;;;;;;3.59;65.29;95981.94;5074220;28;20478;-68
2020/12/03 02:42:04;;;;;;;50.40;23.63;;;;;;;3.59;64.53;95987.13;5075234;28;20186;-67
2020/12/03 02:44:30;;;;;;;49.53;23.30;;;;;;;3.48;65.21;95991.50;5060417;28;20430;-68
2020/12/03 02:46:56;;;;;;;56.13;23.30;;;;;;;3.37;66.04;95984.69;5052391;28;21005;-68
2020/12/03 02:49:21;;;;;;;57.17;24.37;;;;;;;3.23;66.54;95988.50;5075973;28;20206;-68
2020/12/03 02:51:47;;;;;;;52.70;24.17;;;;;;;3.37;66.21;95981.28;5058038;28;20919;-68
2020/12/03 02:54:13;;;;;;;57.40;25.10;;;;;;;3.48;65.70;95982.91;5075314;28;20224;-68
2020/12/03 02:56:39;;;;;;;50.67;23.93;;;;;;;3.44;65.94;95982.34;5073666;28;20669;-69
2020/12/03 02:59:07;;;;;;;44.53;22.50;;;;;;;3.46;66.04;95982.25;5074351;28;20517;-68
2020/12/03 03:01:33;;;;;;;62.27;24.10;;;;;;;3.29;66.43;95973.38;5074523;28;20417;-67
2020/12/03 03:04:02;;;;;;;43.47;22.40;;;;;;;3.28;66.19;95976.91;5073097;28;20425;-68
2020/12/03 03:06:29;;;;;;;53.90;24.00;;;;;;;3.39;66.25;95976.78;5074247;28;20424;-67
2020/12/03 03:08:55;;;;;;;55.73;25.20;;;;;;;3.22;66.65;95986.03;5068799;28;20464;-67
2020/12/03 03:11:21;;;;;;;55.70;24.07;;;;;;;3.02;67.45;95978.28;5074072;28;20435;-68
2020/12/03 03:13:46;;;;;;;56.43;23.70;;;;;;;3.28;67.29;95969.97;5073992;28;20788;-67
2020/12/03 03:16:12;;;;;;;51.73;22.97;;;;;;;3.31;66.81;95966.28;5057639;28;20183;-69
2020/12/03 03:18:38;;;;;;;58.67;25.63;;;;;;;3.03;67.48;95972.16;5073908;28;20273;-68
2020/12/03 03:21:03;;;;;;;46.17;23.63;;;;;;;3.02;67.17;95964.53;5070991;28;20602;-67
2020/12/03 03:23:29;;;;;;;52.40;24.13;;;;;;;2.97;66.95;95964.09;5070666;28;20175;-68
2020/12/03 03:25:55;;;;;;;48.37;25.07;;;;;;;3.02;67.17;95975.69;5038810;28;20183;-68
2020/12/03 03:28:20;;;;;;;46.70;23.37;;;;;;;3.17;67.28;95965.75;5063065;28;20203;-69
2020/12/03 03:30:46;;;;;;;56.50;26.20;;;;;;;3.11;67.12;95971.47;5067159;28;20174;-68
2020/12/03 03:33:12;;;;;;;57.50;25.10;;;;;;;2.97;67.77;95971.88;5072164;28;20182;-68
2020/12/03 03:35:37;;;;;;;57.63;25.40;;;;;;;3.11;67.43;95968.88;5072062;28;20178;-68
2020/12/03 03:38:03;;;;;;;59.53;26.13;;;;;;;3.06;66.90;95960.69;5072935;28;20205;-69
2020/12/03 03:40:29;;;;;;;58.80;25.60;;;;;;;2.88;67.20;95958.78;5069523;28;20239;-68
2020/12/03 03:42:54;;;;;;;59.60;26.50;;;;;;;2.68;68.29;95951.94;5053891;28;20198;-68
2020/12/03 03:45:20;;;;;;;56.07;24.67;;;;;;;2.97;67.88;95946.78;5060377;28;20194;-67
2020/12/03 03:47:46;;;;;;;51.90;24.80;;;;;;;3.07;67.92;95944.22;5072958;28;20206;-69
2020/12/03 03:50:12;;;;;;;50.63;24.37;;;;;;;3.12;67.60;95947.22;5072479;28;20178;-69
2020/12/03 03:52:38;;;;;;;48.60;24.30;;;;;;;3.18;67.14;95944.06;5071629;28;20252;-68
2020/12/03 03:55:04;;;;;;;55.93;25.30;;;;;;;3.17;66.54;95950.19;5073917;28;21116;-67
2020/12/03 03:57:30;;;;;;;54.00;25.10;;;;;;;2.88;67.64;95951.03;5074098;28;20209;-67
2020/12/03 03:59:56;;;;;;;50.10;24.73;;;;;;;2.98;68.26;95942.44;5058365;28;20491;-67
2020/12/03 04:02:22;;;;;;;57.60;25.00;;;;;;;3.16;67.57;95945.16;5074598;28;20258;-68
2020/12/03 04:04:48;;;;;;;51.13;24.60;;;;;;;3.07;67.64;95951.97;5073884;28;20596;-67
2020/12/03 04:07:15;;;;;;;52.47;25.17;;;;;;;3.17;67.11;95952.78;5073020;28;20494;-67
2020/12/03 04:09:41;;;;;;;53.00;24.23;;;;;;;3.28;67.28;95938.06;5045821;28;20970;-68
2020/12/03 04:12:07;;;;;;;55.00;26.30;;;;;;;3.32;66.81;95934.25;5055845;28;20425;-67
2020/12/03 04:14:33;;;;;;;51.67;25.67;;;;;;;3.33;67.20;95931.53;5079970;28;20421;-67
2020/12/03 04:16:58;;;;;;;54.70;25.67;;;;;;;3.25;66.86;95928.00;5080052;28;20440;-69
2020/12/03 04:19:24;;;;;;;52.30;24.57;;;;;;;3.10;66.72;95941.38;5066981;28;20646;-68
2020/12/03 04:21:50;;;;;;;44.83;23.47;;;;;;;2.94;67.74;95930.72;5070388;28;20434;-68
2020/12/03 04:24:16;;;;;;;49.33;24.17;;;;;;;2.83;67.69;95929.91;5072557;28;20178;-68
2020/12/03 04:26:42;;;;;;;56.27;25.03;;;;;;;3.01;67.64;95937.00;5072232;28;20206;-69
2020/12/03 04:29:07;;;;;;;47.40;23.60;;;;;;;2.85;68.13;95928.00;5071599;28;20931;-67
2020/12/03 04:31:33;;;;;;;50.20;25.00;;;;;;;2.60;68.44;95919.81;5071814;28;20210;-68
2020/12/03 04:33:59;;;;;;;47.77;25.37;;;;;;;2.50;68.79;95921.56;5072104;28;20190;-68
2020/12/03 04:36:24;;;;;;;53.87;24.40;;;;;;;2.82;68.54;95919.69;5072023;28;20246;-67
2020/12/03 04:38:50;;;;;;;48.63;24.90;;;;;;;2.87;67.96;95923.53;5071373;28;20542;-68
2020/12/03 04:41:16;;;;;;;52.73;23.87;;;;;;;2.97;67.63;95925.28;5041132;28;20178;-68
2020/12/03 04:44:04;;;;;;;51.30;25.33;;;;;;;3.06;67.59;95927.03;5070342;28;20214;-68
2020/12/03 04:46:40;;;;;;;50.70;23.80;;;;;;;3.12;66.58;95915.31;5059741;28;20433;-67
2020/12/03 04:49:24;;;;;;;45.17;22.77;;;;;;;3.01;67.45;95911.13;5070135;28;20908;-69
2020/12/03 04:51:57;;;;;;;52.93;24.80;;;;;;;3.21;66.71;95911.94;5071266;28;20468;-68
2020/12/03 04:54:34;;;;;;;48.40;23.27;;;;;;;2.77;67.64;95914.94;5053527;28;20444;-67
2020/12/03 04:57:03;;;;;;;50.13;23.23;;;;;;;2.82;68.16;95911.94;5070284;28;20464;-67
2020/12/03 04:59:50;;;;;;;47.57;23.17;;;;;;;3.13;67.08;95907.44;5071965;28;20425;-67
2020/12/03 05:02:41;;;;;;;43.10;22.87;;;;;;;2.51;68.37;95905.09;5057579;28;20438;-68
2020/12/03 05:05:28;;;;;;;41.03;20.60;;;;;;;2.96;67.88;95908.91;5072086;28;20520;-67
2020/12/03 05:08:00;;;;;;;38.33;20.30;;;;;;;3.15;67.04;95907.28;5070122;28;20491;-69
2020/12/03 05:10:44;;;;;;;50.33;21.47;;;;;;;3.26;67.00;95903.75;5053778;28;20452;-69
2020/12/03 05:13:24;;;;;;;41.13;19.93;;;;;;;3.43;66.28;95897.84;5055316;28;20497;-67
2020/12/03 05:15:55;;;;;;;39.87;21.07;;;;;;;3.49;66.14;95894.69;5055135;28;20422;-69
2020/12/03 05:18:58;;;;;;;39.27;20.40;;;;;;;3.17;66.93;95897.63;5069220;28;20441;-68
2020/12/03 05:21:29;;;;;;;38.10;20.30;;;;;;;3.41;66.10;95894.56;5058178;28;20409;-67
2020/12/03 05:23:55;;;;;;;34.60;18.90;;;;;;;3.49;65.75;95886.94;5070387;28;20425;-68
2020/12/03 05:26:28;;;;;;;34.10;19.43;;;;;;;2.29;68.33;95882.88;5070097;28;20432;-66
2020/12/03 05:29:03;;;;;;;33.67;18.33;;;;;;;2.61;67.78;95880.06;5070965;28;20209;-68
2020/12/03 05:31:32;;;;;;;34.03;19.30;;;;;;;3.03;66.98;95880.72;5070141;28;20412;-67
2020/12/03 05:34:09;;;;;;;38.43;18.30;;;;;;;3.10;66.25;95874.06;5074889;28;20911;-69
2020/12/03 05:36:41;;;;;;;29.43;16.60;;;;;;;3.25;65.74;95871.84;5075088;28;20929;-69
2020/12/03 05:39:13;;;;;;;28.50;16.20;;;;;;;3.44;65.13;95867.59;5070854;28;20451;-67
2020/12/03 05:41:52;;;;;;;29.80;17.73;;;;;;;3.49;64.61;95867.97;5065750;28;20782;-67
2020/12/03 05:44:27;;;;;;;30.40;16.43;;;;;;;3.50;64.11;95859.25;5058201;28;20982;-67
2020/12/03 05:46:55;;;;;;;28.37;16.00;;;;;;;3.53;64.07;95854.59;5070345;28;20523;-68
2020/12/03 05:49:27;;;;;;;28.07;16.50;;;;;;;3.10;64.86;95855.09;5073520;28;20456;-67
2020/12/03 05:52:05;;;;;;;28.23;15.70;;;;;;;3.25;65.73;95847.72;5074337;28;20507;-69
2020/12/03 05:54:31;;;;;;;26.90;16.33;;;;;;;3.37;64.88;95844.81;5075843;28;20424;-68
2020/12/03 05:56:57;;;;;;;26.97;17.30;;;;;;;3.60;64.29;95849.66;5074823;28;20474;-69
2020/12/03 05:59:24;;;;;;;27.70;16.60;;;;;;;3.66;63.78;95838.75;5075256;28;20211;-67
2020/12/03 06:02:34;;;;;;;29.77;17.17;;;;;;;3.65;63.85;95837.09;5074873;28;20182;-67
2020/12/03 06:05:16;;;;;;;26.30;17.00;;;;;;;2.92;65.97;95835.91;5073141;28;20428;-69
2020/12/03 06:08:04;;;;;;;25.87;15.43;;;;;;;3.46;65.45;95838.00;5057529;28;20475;-68
2020/12/03 06:10:49;;;;;;;24.27;15.23;;;;;;;3.48;64.09;95849.03;5058473;28;20838;-67
2020/12/03 06:13:36;;;;;;;28.60;17.03;;;;;;;3.72;63.58;95839.94;5059222;28;20427;-68
2020/12/03 06:16:07;;;;;;;30.60;16.70;;;;;;;3.63;63.91;95835.63;5074460;28;20850;-68
2020/12/03 06:19:01;;;;;;;29.17;17.27;;;;;;;3.37;64.36;95842.22;5073431;28;20432;-66
2020/12/03 06:21:29;;;;;;;23.63;15.60;;;;;;;3.53;64.31;95839.03;5045088;28;20954;-68
2020/12/03 06:24:31;;;;;;;28.57;17.43;;;;;;;3.63;63.61;95840.81;5074568;28;20982;-67
2020/12/03 06:27:14;;;;;;;25.87;16.00;;;;;;;3.76;63.57;95837.88;5073161;28;20950;-68
2020/12/03 06:29:52;;;;;;;25.93;15.50;;;;;;;3.92;63.05;95832.88;5074929;28;20517;-67
2020/12/03 06:32:52;;;;;;;25.93;15.57;;;;;;;3.93;63.17;95833.69;5074603;28;20757;-68
2020/12/03 06:35:30;;;;;;;26.10;16.30;;;;;;;4.00;62.50;95832.19;5075076;28;20428;-69
2020/12/03 06:38:16;;;;;;;27.30;15.30;;;;;;;3.59;63.73;95831.66;5073184;28;20468;-68
2020/12/03 06:40:49;;;;;;;29.13;16.53;;;;;;;3.95;63.47;95834.38;5073932;28;20451;-68
2020/12/03 06:43:34;;;;;;;22.63;15.00;;;;;;;4.02;62.73;95829.44;5038917;28;20920;-68
2020/12/03 06:46:03;;;;;;;24.90;16.20;;;;;;;4.10;61.90;95832.94;5072703;28;20433;-68
2020/12/03 06:48:41;;;;;;;26.87;16.60;;;;;;;3.64;63.19;95829.47;5072719;28;20460;-67
2020/12/03 06:51:25;;;;;;;25.33;15.40;;;;;;;3.84;63.47;95825.84;5044808;28;20420;-68
2020/12/03 06:54:05;;;;;;;27.80;16.57;;;;;;;3.91;62.65;95820.88;5074309;28;20421;-67
2020/12/03 06:56:52;;;;;;;25.43;16.33;;;;;;;3.91;62.63;95825.25;5074462;28;20424;-68
2020/12/03 06:59:35;;;;;;;26.83;15.77;;;;;;;4.08;62.26;95824.47;5060505;28;20470;-68
2020/12/03 07:02:10;;;;;;;27.70;15.87;;;;;;;3.84;62.07;95828.44;5074177;28;20420;-68
2020/12/03 07:04:48;;;;;;;24.20;15.50;;;;;;;3.93;62.12;95823.31;5074094;28;20427;-69
2020/12/03 07:07:48;;;;;;;27.23;16.10;;;;;;;3.67;63.31;95824.81;5073887;28;20436;-67
2020/12/03 07:10:23;;;;;;;22.57;14.30;;;;;;;3.96;62.30;95821.28;5074237;28;20447;-68
2020/12/03 07:13:14;;;;;;;33.07;15.33;;;;;;;4.04;61.69;95811.94;5074728;28;20428;-69
2020/12/03 07:15:40;;;;;;;23.20;14.10;;;;;;;4.08;61.78;95819.28;5056216;28;20429;-67
2020/12/03 07:18:44;;;;;;;23.83;14.73;;;;;;;4.12;61.62;95807.69;5055596;28;20451;-70
2020/12/03 07:21:16;;;;;;;23.80;14.37;;;;;;;3.75;61.87;95803.38;5061516;28;20458;-72
2020/12/03 07:23:56;;;;;;;26.53;14.97;;;;;;;3.87;62.09;95809.16;5072824;28;20413;-69
2020/12/03 07:26:44;;;;;;;25.83;15.37;;;;;;;3.80;62.08;95798.56;5072500;28;20431;-69
2020/12/03 07:29:16;;;;;;;26.67;15.23;;;;;;;3.95;61.20;95808.44;5073586;28;21016;-68
2020/12/03 07:31:46;;;;;;;22.53;13.53;;;;;;;3.28;62.99;95808.59;5073305;28;20421;-68
2020/12/03 07:34:18;;;;;;;21.40;14.10;;;;;;;3.42;62.79;95810.72;5076250;28;20504;-69
2020/12/03 07:36:52;;;;;;;23.97;14.60;;;;;;;3.89;61.65;95801.28;5082044;28;20460;-72
2020/12/03 07:39:21;;;;;;;22.47;14.07;;;;;;;3.60;61.56;95799.63;5053986;28;20448;-67
2020/12/03 07:41:59;;;;;;;20.07;12.97;;;;;;;3.83;61.61;95808.66;5066516;28;21019;-66
2020/12/03 07:44:30;;;;;;;19.37;12.20;;;;;;;3.97;60.95;95798.75;5055223;28;20432;-69
2020/12/03 07:47:18;;;;;;;25.00;15.07;;;;;;;4.05;61.00;95796.25;5070737;28;20470;-68
2020/12/03 07:49:46;;;;;;;24.60;14.17;;;;;;;4.10;60.60;95788.84;5072438;28;20563;-71
2020/12/03 07:52:28;;;;;;;18.60;11.67;;;;;;;4.04;60.10;95791.22;5060720;28;20435;-69
2020/12/03 07:54:55;;;;;;;17.13;12.13;;;;;;;3.88;60.86;95781.50;5066255;28;20450;-69
2020/12/03 07:57:33;;;;;;;18.37;11.57;;;;;;;4.13;59.37;95773.00;5054279;28;20821;-69
2020/12/03 07:59:58;;;;;;;17.07;10.80;;;;;;;4.25;58.64;95768.41;5071119;28;20519;-69
2020/12/03 08:02:50;;;;;;;15.13;10.10;;;;;;;4.32;58.38;95766.03;5073165;28;20431;-68
2020/12/03 08:05:37;;;;;;;12.33;7.70;;;;;;;2.92;58.12;95768.63;5071797;28;20309;-70
2020/12/03 08:08:03;;;;;;;19.23;8.30;;;;;;;3.75;56.98;95768.84;5071717;28;20456;-69
2020/12/03 08:10:39;;;;;;;14.77;8.70;;;;;;;4.08;56.38;95764.84;5069261;28;20428;-67
2020/12/03 08:13:22;;;;;;;14.27;9.20;;;;;;;4.31;56.46;95769.59;5071816;28;20579;-67
2020/12/03 08:16:32;;;;;;;10.80;7.90;;;;;;;4.39;56.45;95769.69;5070604;28;20941;-70
2020/12/03 08:19:01;;;;;;;14.10;8.60;;;;;;;4.42;56.69;95760.78;5072636;28;20425;-68
2020/12/03 08:21:40;;;;;;;13.63;9.27;;;;;;;4.49;57.08;95761.00;5055269;28;20540;-69
2020/12/03 08:24:15;;;;;;;14.73;10.00;;;;;;;4.48;56.99;95756.78;5072748;28;20523;-67
2020/12/03 08:26:41;;;;;;;16.90;10.27;;;;;;;4.42;56.74;95751.19;5070634;28;20424;-68
2020/12/03 08:29:24;;;;;;;16.50;10.63;;;;;;;4.30;57.38;95742.03;5072233;28;20472;-71
2020/12/03 08:31:49;;;;;;;18.53;10.70;;;;;;;4.42;57.60;95743.41;5055330;28;20536;-70
2020/12/03 08:34:15;;;;;;;16.20;10.53;;;;;;;4.46;58.51;95751.75;5072639;28;20508;-70
2020/12/03 08:36:42;;;;;;;16.27;10.27;;;;;;;4.55;57.82;95747.41;5057076;28;20603;-67
2020/12/03 08:39:09;;;;;;;17.27;10.63;;;;;;;4.47;57.97;95743.00;5071376;28;20185;-68
2020/12/03 08:41:34;;;;;;;18.13;11.33;;;;;;;4.22;58.48;95742.75;5072710;28;20413;-69
2020/12/03 08:44:04;;;;;;;20.17;11.70;;;;;;;4.26;58.98;95735.53;5071828;28;20789;-67
2020/12/03 08:46:33;;;;;;;17.43;11.60;;;;;;;4.13;59.45;95734.13;5059755;28;20207;-68
2020/12/03 08:48:58;;;;;;;20.10;11.40;;;;;;;4.27;59.21;95731.97;5070220;28;20952;-69
2020/12/03 08:51:24;;;;;;;18.30;11.47;;;;;;;4.27;59.51;95724.97;5047020;28;20446;-69
2020/12/03 08:53:51;;;;;;;20.27;12.70;;;;;;;4.27;59.26;95716.41;5068170;28;20198;-69
2020/12/03 08:56:24;;;;;;;17.93;12.13;;;;;;;3.74;61.22;95716.22;5071329;28;20209;-69
2020/12/03 08:59:10;;;;;;;22.00;12.80;;;;;;;3.79;61.64;95719.19;5071168;28;20408;-69
2020/12/03 09:01:42;;;;;;;21.77;12.97;;;;;;;4.17;59.96;95713.03;5040758;28;20441;-68
2020/12/03 09:04:11;;;;;;;20.80;13.53;;;;;;;4.38;60.25;95704.97;5071337;28;20420;-69
2020/12/03 09:06:48;;;;;;;20.53;13.60;;;;;;;4.33;59.46;95705.41;5069640;28;20834;-71
2020/12/03 09:09:17;;;;;;;25.73;16.63;;;;;;;4.17;60.23;95700.91;5050945;28;20551;-68
2020/12/03 09:11:43;;;;;;;30.33;16.03;;;;;;;4.43;60.12;95698.34;5070228;28;20417;-68
2020/12/03 09:14:08;;;;;;;21.83;14.60;;;;;;;4.53;59.48;95685.28;5070113;28;20949;-70
2020/12/03 09:16:35;;;;;;;23.80;15.57;;;;;;;4.65;59.05;95691.06;5071757;28;20182;-69
2020/12/03 09:19:01;;;;;;;23.97;14.17;;;;;;;4.38;59.40;95679.84;5053205;28;20176;-69
2020/12/03 09:21:29;;;;;;;26.20;15.53;;;;;;;4.59;58.88;95674.31;5059366;28;20940;-68
2020/12/03 09:23:56;;;;;;;22.90;14.20;;;;;;;4.71;59.13;95676.66;5070705;28;20684;-69
2020/12/03 09:26:33;;;;;;;21.30;12.83;;;;;;;4.89;58.13;95674.00;5070244;28;20457;-68
2020/12/03 09:29:01;;;;;;;20.23;13.70;;;;;;;4.80;58.18;95672.31;5054452;28;20533;-68
2020/12/03 09:31:31;;;;;;;22.90;14.47;;;;;;;4.83;58.47;95674.59;5070434;28;20425;-69
2020/12/03 09:33:57;;;;;;;20.60;13.90;;;;;;;4.89;58.26;95664.41;5069837;28;20508;-69
2020/12/03 09:36:23;;;;;;;22.50;14.23;;;;;;;4.82;58.76;95662.59;5053397;28;20424;-68
2020/12/03 09:38:49;;;;;;;20.83;13.90;;;;;;;4.72;59.08;95667.91;5053184;28;20442;-69
2020/12/03 09:41:21;;;;;;;21.27;12.90;;;;;;;4.57;58.60;95665.88;5069949;28;20425;-69
2020/12/03 09:43:48;;;;;;;26.23;14.10;;;;;;;4.81;58.31;95651.41;5052142;28;20928;-68
2020/12/03 09:46:19;;;;;;;21.47;13.03;;;;;;;4.83;58.36;95653.84;5069571;28;20439;-67
2020/12/03 09:48:45;;;;;;;21.30;13.00;;;;;;;4.87;57.38;95639.59;5052256;28;21203;-68
2020/12/03 09:51:11;;;;;;;19.20;13.00;;;;;;;4.96;56.85;95633.47;5056028;28;20419;-68
2020/12/03 09:53:37;;;;;;;28.73;14.10;;;;;;;4.75;57.52;95626.06;5061152;28;21138;-68
2020/12/03 09:56:03;;;;;;;21.37;13.37;;;;;;;5.10;57.64;95623.47;5071342;28;20935;-68
2020/12/03 09:58:29;;;;;;;18.60;11.37;;;;;;;5.10;57.11;95626.06;5070842;28;20198;-68
2020/12/03 10:01:02;;;;;;;19.30;12.67;;;;;;;5.15;56.46;95623.81;5070030;28;20431;-67
2020/12/03 10:03:31;;;;;;;19.57;13.20;;;;;;;5.06;56.58;95612.56;5064070;28;20496;-67
2020/12/03 10:06:18;;;;;;;16.33;11.47;;;;;;;5.09;56.58;95604.47;5070642;28;20845;-68
2020/12/03 10:09:20;;;;;;;21.33;12.80;;;;;;;4.92;56.87;95595.78;5066674;28;21019;-68
2020/12/03 10:12:07;;;;;;;17.00;11.70;;;;;;;4.89;57.44;95596.13;5070944;28;21194;-72
2020/12/03 10:14:54;;;;;;;19.97;13.53;;;;;;;4.94;57.34;95588.66;5070000;28;20416;-69
2020/12/03 10:17:22;;;;;;;18.50;12.43;;;;;;;5.19;56.03;95592.16;5059890;28;20777;-69
2020/12/03 10:19:49;;;;;;;17.67;11.57;;;;;;;5.09;55.10;95591.50;5065455;28;20427;-69
2020/12/03 10:22:17;;;;;;;19.97;13.23;;;;;;;4.83;56.01;95581.16;5059102;28;20420;-69
2020/12/03 10:24:57;;;;;;;16.67;11.47;;;;;;;4.94;55.97;95582.66;5057209;28;20527;-68
2020/12/03 10:28:01;;;;;;;17.87;11.40;;;;;;;4.91;54.75;95568.22;5073041;28;20444;-68
2020/12/03 10:30:37;;;;;;;17.30;11.93;;;;;;;4.87;55.20;95556.53;5073652;28;20440;-67
2020/12/03 10:33:05;;;;;;;19.60;11.60;;;;;;;5.17;54.16;95543.94;5073481;28;20519;-67
2020/12/03 10:35:31;;;;;;;16.87;11.07;;;;;;;5.31;54.22;95538.13;5074744;28;20417;-69
2020/12/03 10:37:58;;;;;;;16.80;11.30;;;;;;;5.41;53.77;95532.78;5039093;28;20436;-69
2020/12/03 10:40:25;;;;;;;16.23;10.87;;;;;;;4.80;55.17;95545.13;5073020;28;20449;-68
2020/12/03 10:43:03;;;;;;;16.80;11.07;;;;;;;5.13;54.53;95532.25;5072384;28;20553;-68
2020/12/03 10:45:37;;;;;;;17.57;11.10;;;;;;;5.20;54.49;95536.66;5073320;28;20437;-68
2020/12/03 10:48:13;;;;;;;19.23;11.73;;;;;;;5.08;54.71;95530.94;5057963;28;20464;-68
2020/12/03 10:50:51;;;;;;;26.07;13.70;;;;;;;5.50;53.59;95536.22;5061424;28;20426;-69
2020/12/03 10:53:22;;;;;;;18.37;10.53;;;;;;;5.15;53.97;95543.31;5051225;28;20437;-69
2020/12/03 10:56:01;;;;;;;20.17;11.63;;;;;;;5.43;53.67;95540.41;5074115;28;20456;-69
2020/12/03 10:58:45;;;;;;;17.50;10.73;;;;;;;5.22;54.29;95528.69;5083909;28;20437;-69
2020/12/03 11:01:22;;;;;;;17.73;11.20;;;;;;;5.28;53.78;95528.06;5083098;28;20421;-68
2020/12/03 11:03:52;;;;;;;16.30;10.40;;;;;;;5.37;53.54;95528.88;5072076;28;20432;-71
2020/12/03 11:06:23;;;;;;;16.13;10.83;;;;;;;5.53;53.03;95531.50;5078731;28;20428;-70
2020/12/03 11:08:49;;;;;;;17.23;11.17;;;;;;;5.31;53.67;95530.31;5068530;28;20465;-68
2020/12/03 11:11:15;;;;;;;21.63;12.07;;;;;;;5.20;53.78;95531.47;5073232;28;20776;-69
2020/12/03 11:13:41;;;;;;;18.87;11.00;;;;;;;5.61;53.10;95517.69;5071998;28;20428;-68
2020/12/03 11:16:08;;;;;;;16.10;10.60;;;;;;;5.43;52.48;95514.44;5071383;28;20789;-68
2020/12/03 11:18:40;;;;;;;15.40;10.10;;;;;;;5.62;52.30;95500.31;5072714;28;20476;-67
2020/12/03 11:21:23;;;;;;;14.90;9.77;;;;;;;5.72;51.92;95498.38;5060653;28;20515;-68
2020/12/03 11:23:59;;;;;;;15.33;9.67;;;;;;;4.90;53.08;95486.13;5056559;28;21001;-67
2020/12/03 11:26:28;;;;;;;13.73;9.40;;;;;;;5.23;53.14;95493.97;5072587;28;20442;-67
2020/12/03 11:28:53;;;;;;;11.73;8.50;;;;;;;4.91;52.93;95485.16;5072310;28;20469;-68
2020/12/03 11:31:29;;;;;;;14.53;10.30;;;;;;;5.41;52.31;95487.81;5073592;28;20419;-71
2020/12/03 11:33:55;;;;;;;19.20;10.20;;;;;;;5.50;52.11;95479.03;5071594;28;20189;-68
2020/12/03 11:36:21;;;;;;;18.03;8.20;;;;;;;5.62;50.72;95469.94;5065328;28;20425;-67
2020/12/03 11:38:51;;;;;;;22.23;10.27;;;;;;;5.73;50.75;95467.97;5055657;28;20666;-68
2020/12/03 11:41:45;;;;;;;20.10;9.83;;;;;;;5.81;50.61;95465.34;5074076;28;20320;-69
2020/12/03 11:44:27;;;;;;;16.63;8.80;;;;;;;5.50;51.73;95451.25;5057423;28;20436;-69
2020/12/03 11:49:37;;;;;;;12.40;8.57;;;;;;;5.58;51.65;95441.84;5055553;28;20502;-70
2020/12/03 11:52:17;;;;;;;11.80;8.10;;;;;;;5.36;51.61;95437.16;5043311;28;20441;-67